Time;durP1;ratioP1;P1;durP2;ratioP2;P2;SDS_P1;SDS_P2;PMS_P1;PMS_P2;Temp;Humidity;BMP_temperature;BMP_pressure;BME280_temperature;BME280_humidity;BME280_pressure;Samples;Min_cycle;Max_cycle;Signal;HPM_P1;HPM_P2
2024/03/17 00:02:21;;;;;;;2.53;1.17;;;11.50;77.80;;;;;;5116058;28;20830;-66
2024/03/17 00:04:51;;;;;;;3.87;1.50;;;11.50;77.60;;;;;;5115722;28;20434;-66
2024/03/17 00:07:17;;;;;;;3.20;1.37;;;11.50;77.70;;;;;;5115859;28;20974;-66
2024/03/17 00:09:46;;;;;;;2.30;1.03;;;11.50;77.50;;;;;;5115595;28;20430;-66
2024/03/17 00:12:12;;;;;;;2.57;1.20;;;11.50;77.70;;;;;;5115457;28;20458;-66
2024/03/17 00:14:43;;;;;;;4.17;1.60;;;11.50;77.50;;;;;;5115826;28;20433;-66
2024/03/17 00:17:10;;;;;;;4.30;1.73;;;11.40;77.60;;;;;;5115470;28;20483;-66
2024/03/17 00:19:37;;;;;;;3.00;1.60;;;11.40;78.00;;;;;;5115645;28;20465;-66
2024/03/17 00:22:05;;;;;;;3.33;1.20;;;11.40;78.10;;;;;;5115674;28;20477;-66
2024/03/17 00:24:34;;;;;;;4.03;2.00;;;11.40;78.30;;;;;;5115513;28;20430;-66
2024/03/17 00:27:01;;;;;;;2.20;1.13;;;11.40;78.50;;;;;;5115058;28;20521;-67
2024/03/17 00:29:28;;;;;;;2.57;1.00;;;11.50;78.50;;;;;;5115456;28;20469;-66
2024/03/17 00:31:54;;;;;;;2.70;1.73;;;11.40;78.60;;;;;;5115389;28;20519;-66
2024/03/17 00:34:22;;;;;;;3.47;1.80;;;11.40;79.20;;;;;;5115323;28;20521;-66
2024/03/17 00:36:48;;;;;;;2.70;1.30;;;11.40;79.20;;;;;;5115436;28;20496;-66
2024/03/17 00:39:16;;;;;;;2.40;1.43;;;11.40;79.60;;;;;;5113937;28;20430;-66
2024/03/17 00:41:43;;;;;;;2.97;1.20;;;11.40;80.20;;;;;;5115261;28;20431;-66
2024/03/17 00:44:10;;;;;;;2.83;1.60;;;11.40;80.00;;;;;;5115159;28;20193;-66
2024/03/17 00:46:36;;;;;;;2.73;1.10;;;11.40;80.00;;;;;;5115050;28;20429;-66
2024/03/17 00:49:03;;;;;;;2.67;1.60;;;11.40;80.10;;;;;;5115055;28;20897;-66
2024/03/17 00:51:30;;;;;;;6.83;3.47;;;11.40;81.00;;;;;;5114942;28;20432;-66
2024/03/17 00:53:58;;;;;;;3.80;1.70;;;11.30;80.60;;;;;;5114571;28;20472;-66
2024/03/17 00:56:25;;;;;;;3.00;1.47;;;11.30;81.10;;;;;;5114923;28;20436;-66
2024/03/17 00:58:52;;;;;;;2.63;1.30;;;11.30;81.10;;;;;;5114828;28;20466;-66
2024/03/17 01:01:19;;;;;;;3.90;2.27;;;11.30;81.30;;;;;;5114696;28;20431;-67
2024/03/17 01:03:46;;;;;;;2.80;1.50;;;11.30;81.20;;;;;;5114817;28;20438;-67
2024/03/17 01:06:12;;;;;;;3.00;1.50;;;11.30;80.80;;;;;;5114814;28;20471;-66
2024/03/17 01:08:39;;;;;;;5.17;1.50;;;11.30;81.10;;;;;;5114669;28;20647;-66
2024/03/17 01:11:08;;;;;;;2.67;1.33;;;11.30;81.00;;;;;;5114327;28;20554;-66
2024/03/17 01:13:41;;;;;;;2.35;1.20;;;11.30;80.90;;;;;;5114788;28;20466;-66
2024/03/17 01:16:07;;;;;;;2.43;1.37;;;11.20;80.50;;;;;;5114662;28;20460;-66
2024/03/17 01:18:34;;;;;;;3.00;1.17;;;11.20;80.20;;;;;;5114015;28;20435;-66
2024/03/17 01:21:00;;;;;;;2.90;1.23;;;11.10;80.10;;;;;;5114865;28;20779;-66
2024/03/17 01:23:27;;;;;;;2.50;1.63;;;11.00;80.40;;;;;;5114562;28;20486;-66
2024/03/17 01:25:53;;;;;;;3.43;1.37;;;10.90;81.10;;;;;;5114441;28;20530;-66
2024/03/17 01:28:20;;;;;;;3.10;1.40;;;10.90;81.30;;;;;;5114460;28;20474;-66
2024/03/17 01:30:48;;;;;;;2.23;1.07;;;10.90;81.40;;;;;;5114416;28;20520;-66
2024/03/17 01:33:15;;;;;;;2.70;1.23;;;10.80;81.50;;;;;;5113934;28;20463;-67
2024/03/17 01:35:41;;;;;;;2.22;1.15;;;10.80;81.60;;;;;;5114334;28;20185;-66
2024/03/17 01:38:10;;;;;;;2.50;1.20;;;10.80;81.50;;;;;;5114391;28;20210;-66
2024/03/17 01:40:36;;;;;;;2.90;1.48;;;10.80;81.30;;;;;;5114325;28;21000;-66
2024/03/17 01:43:09;;;;;;;5.57;1.52;;;10.80;81.30;;;;;;5114325;28;20276;-66
2024/03/17 01:45:36;;;;;;;2.43;1.60;;;10.70;81.70;;;;;;5114482;28;20195;-66
2024/03/17 01:48:13;;;;;;;3.00;1.67;;;10.70;82.10;;;;;;5114372;28;20525;-66
2024/03/17 01:50:39;;;;;;;2.55;1.40;;;10.70;82.20;;;;;;5113948;28;20568;-66
2024/03/17 01:53:09;;;;;;;2.38;1.48;;;10.70;82.40;;;;;;5114093;28;20211;-66
2024/03/17 01:55:38;;;;;;;4.03;1.50;;;10.70;82.00;;;;;;5114261;28;20208;-66
2024/03/17 01:58:10;;;;;;;6.25;1.40;;;10.60;82.20;;;;;;5114359;28;20188;-66
2024/03/17 02:00:36;;;;;;;4.57;1.65;;;10.60;82.90;;;;;;5113878;28;20634;-66
2024/03/17 02:03:05;;;;;;;2.97;1.45;;;10.60;83.40;;;;;;5114047;28;20188;-66
2024/03/17 02:05:31;;;;;;;2.40;1.10;;;10.60;83.30;;;;;;5113928;28;20266;-66
2024/03/17 02:07:58;;;;;;;3.55;1.67;;;10.60;83.40;;;;;;5114001;28;20230;-66
2024/03/17 02:10:25;;;;;;;3.58;1.85;;;10.50;83.70;;;;;;5114028;28;20184;-66
2024/03/17 02:12:52;;;;;;;2.88;1.70;;;10.50;83.70;;;;;;5113541;28;20211;-66
2024/03/17 02:15:19;;;;;;;4.22;1.77;;;10.50;84.40;;;;;;5113839;28;20188;-66
2024/03/17 02:17:46;;;;;;;3.13;2.20;;;10.50;84.50;;;;;;5113543;28;20667;-66
2024/03/17 02:20:14;;;;;;;3.17;2.13;;;10.50;84.20;;;;;;5113866;28;20470;-66
2024/03/17 02:22:42;;;;;;;5.00;2.60;;;10.60;83.70;;;;;;5113731;28;20188;-66
2024/03/17 02:25:09;;;;;;;3.10;2.13;;;10.50;83.90;;;;;;5113747;28;20454;-66
2024/03/17 02:27:36;;;;;;;5.70;1.38;;;10.50;83.90;;;;;;5113621;28;20230;-66
2024/03/17 02:30:02;;;;;;;1.98;0.98;;;10.50;83.70;;;;;;5113374;28;20241;-66
2024/03/17 02:32:29;;;;;;;2.67;1.58;;;10.50;83.40;;;;;;5113631;28;20208;-66
2024/03/17 02:34:56;;;;;;;2.60;1.40;;;10.40;83.30;;;;;;5113688;28;20181;-66
2024/03/17 02:37:23;;;;;;;2.42;1.30;;;10.40;83.90;;;;;;5113705;28;20545;-66
2024/03/17 02:39:51;;;;;;;2.40;1.38;;;10.30;84.10;;;;;;5113960;28;20219;-66
2024/03/17 02:42:17;;;;;;;3.35;1.90;;;10.30;84.30;;;;;;5113432;28;20194;-66
2024/03/17 02:44:45;;;;;;;3.85;2.05;;;10.40;84.60;;;;;;5113847;28;20236;-66
2024/03/17 02:47:14;;;;;;;2.63;1.60;;;10.30;84.60;;;;;;5113337;28;20585;-66
2024/03/17 02:49:43;;;;;;;2.92;1.33;;;10.30;84.70;;;;;;5113833;28;20184;-66
2024/03/17 02:52:11;;;;;;;3.10;1.27;;;10.30;85.00;;;;;;5113181;28;20704;-66
2024/03/17 02:54:39;;;;;;;2.45;1.38;;;10.30;84.90;;;;;;5113591;28;20192;-66
2024/03/17 02:57:08;;;;;;;2.50;1.33;;;10.40;84.90;;;;;;5113491;28;20195;-66
2024/03/17 02:59:35;;;;;;;3.50;1.17;;;10.40;84.40;;;;;;5113682;28;20184;-66
2024/03/17 03:02:03;;;;;;;3.08;1.13;;;10.40;84.30;;;;;;5113460;28;20195;-66
2024/03/17 03:04:31;;;;;;;3.00;1.50;;;10.30;84.10;;;;;;5117162;28;20188;-66
2024/03/17 03:06:58;;;;;;;2.90;1.25;;;10.30;84.20;;;;;;5117104;28;20194;-66
2024/03/17 03:09:31;;;;;;;3.35;1.50;;;10.30;83.90;;;;;;5116726;28;20651;-66
2024/03/17 03:11:58;;;;;;;2.55;1.40;;;10.20;84.10;;;;;;5117081;28;20220;-66
2024/03/17 03:14:26;;;;;;;2.25;1.27;;;10.20;84.30;;;;;;5117040;28;20243;-66
2024/03/17 03:16:53;;;;;;;2.40;1.30;;;10.10;84.40;;;;;;5116619;28;20223;-66
2024/03/17 03:19:20;;;;;;;2.35;1.10;;;10.10;84.20;;;;;;5116416;28;20311;-66
2024/03/17 03:21:47;;;;;;;2.20;1.30;;;10.00;84.30;;;;;;5116866;28;20552;-66
2024/03/17 03:24:15;;;;;;;5.07;1.30;;;10.00;84.70;;;;;;5116595;28;20305;-66
2024/03/17 03:26:43;;;;;;;3.53;1.90;;;10.00;85.10;;;;;;5116718;28;20224;-66
2024/03/17 03:29:10;;;;;;;2.55;1.30;;;10.00;85.30;;;;;;5116753;28;20228;-66
2024/03/17 03:31:40;;;;;;;2.30;1.40;;;10.00;85.80;;;;;;5116732;28;20186;-66
2024/03/17 03:34:08;;;;;;;3.33;1.35;;;10.00;85.80;;;;;;5116200;28;20208;-66
2024/03/17 03:36:35;;;;;;;4.55;1.85;;;10.00;85.90;;;;;;5116198;28;20639;-67
2024/03/17 03:39:04;;;;;;;3.58;1.63;;;10.00;85.80;;;;;;5116529;28;20184;-66
2024/03/17 03:41:32;;;;;;;3.40;1.52;;;10.00;85.50;;;;;;5116150;28;20216;-66
2024/03/17 03:43:59;;;;;;;3.47;1.45;;;9.90;86.70;;;;;;5116646;28;20199;-66
2024/03/17 03:46:26;;;;;;;2.50;1.50;;;9.90;86.80;;;;;;5116143;28;20647;-66
2024/03/17 03:48:55;;;;;;;2.35;1.70;;;9.90;86.50;;;;;;5116440;28;20206;-66
2024/03/17 03:51:22;;;;;;;2.67;1.67;;;9.90;86.60;;;;;;5116415;28;20592;-66
2024/03/17 03:53:49;;;;;;;2.95;1.40;;;9.90;86.00;;;;;;5115927;28;20262;-66
2024/03/17 03:56:16;;;;;;;2.67;1.73;;;9.90;85.90;;;;;;5116264;28;20223;-66
2024/03/17 03:58:46;;;;;;;2.47;1.35;;;9.90;85.50;;;;;;5115985;28;20653;-66
2024/03/17 04:01:15;;;;;;;2.78;1.55;;;9.90;85.00;;;;;;5115910;28;20223;-66
2024/03/17 04:03:42;;;;;;;2.53;1.52;;;9.90;84.70;;;;;;5115762;28;20744;-66
2024/03/17 04:06:13;;;;;;;2.85;1.92;;;9.80;84.20;;;;;;5115783;28;20184;-66
2024/03/17 04:08:40;;;;;;;3.15;1.70;;;9.70;85.00;;;;;;5115805;28;20622;-66
2024/03/17 04:11:08;;;;;;;2.60;1.70;;;9.70;84.60;;;;;;5115974;28;20184;-66
2024/03/17 04:13:35;;;;;;;8.27;1.80;;;9.60;85.30;;;;;;5115860;28;20642;-66
2024/03/17 04:16:06;;;;;;;2.58;1.17;;;9.60;85.20;;;;;;5115835;28;20184;-66
2024/03/17 04:18:34;;;;;;;2.10;1.20;;;9.60;83.00;;;;;;5115688;28;20255;-66
2024/03/17 04:21:03;;;;;;;2.25;1.15;;;9.50;83.30;;;;;;5116232;28;20177;-66
2024/03/17 04:23:32;;;;;;;2.47;1.52;;;9.40;83.30;;;;;;5115610;28;20279;-66
2024/03/17 04:26:03;;;;;;;2.40;1.10;;;9.40;84.00;;;;;;5115752;28;20263;-66
2024/03/17 04:28:30;;;;;;;3.10;1.85;;;9.40;83.50;;;;;;5115736;28;20238;-66
2024/03/17 04:31:05;;;;;;;2.30;1.35;;;9.30;84.00;;;;;;5115589;28;20216;-66
2024/03/17 04:33:33;;;;;;;2.67;1.45;;;9.30;84.60;;;;;;5115201;28;20200;-66
2024/03/17 04:36:02;;;;;;;3.75;1.60;;;9.20;84.90;;;;;;5115052;28;20703;-66
2024/03/17 04:38:29;;;;;;;2.80;1.60;;;9.20;85.00;;;;;;5115382;28;20635;-66
2024/03/17 04:41:04;;;;;;;2.40;1.50;;;9.20;85.10;;;;;;5115406;28;20205;-66
2024/03/17 04:43:32;;;;;;;2.30;1.35;;;9.20;84.90;;;;;;5115315;28;20190;-66
2024/03/17 04:46:05;;;;;;;2.90;1.70;;;9.10;83.90;;;;;;5115293;28;20219;-66
2024/03/17 04:48:32;;;;;;;2.20;1.27;;;9.10;83.80;;;;;;5114920;28;20233;-66
2024/03/17 04:51:00;;;;;;;3.70;1.95;;;9.10;83.70;;;;;;5114925;28;20198;-66
2024/03/17 04:53:29;;;;;;;2.70;1.52;;;9.10;84.10;;;;;;5115318;28;20207;-66
2024/03/17 04:56:05;;;;;;;2.47;1.75;;;9.10;82.00;;;;;;5115303;28;20195;-66
2024/03/17 04:58:32;;;;;;;2.33;1.48;;;9.00;81.60;;;;;;5114702;28;20184;-66
2024/03/17 05:01:04;;;;;;;2.90;1.75;;;8.90;82.20;;;;;;5114849;28;20184;-66
2024/03/17 05:03:31;;;;;;;2.70;1.55;;;8.80;83.10;;;;;;5115130;28;20211;-66
2024/03/17 05:06:02;;;;;;;2.65;1.38;;;8.80;84.30;;;;;;5114847;28;20189;-66
2024/03/17 05:08:29;;;;;;;3.00;1.60;;;8.80;85.20;;;;;;5114804;28;20185;-66
2024/03/17 05:11:04;;;;;;;3.13;2.42;;;8.80;86.30;;;;;;5114558;28;20188;-66
2024/03/17 05:13:34;;;;;;;4.47;2.08;;;8.90;87.20;;;;;;5114468;28;20200;-66
2024/03/17 05:16:01;;;;;;;3.00;1.80;;;8.90;87.00;;;;;;5114934;28;20188;-66
2024/03/17 05:18:32;;;;;;;8.50;2.55;;;8.90;87.10;;;;;;5114168;28;20188;-66
2024/03/17 05:21:00;;;;;;;3.78;2.22;;;8.90;87.70;;;;;;5114730;28;20183;-66
2024/03/17 05:23:28;;;;;;;4.25;2.13;;;8.90;88.10;;;;;;5114888;28;20279;-66
2024/03/17 05:25:56;;;;;;;3.10;2.00;;;9.00;88.30;;;;;;5114035;28;20188;-66
2024/03/17 05:28:24;;;;;;;2.90;1.92;;;9.00;88.60;;;;;;5114491;28;20223;-66
2024/03/17 05:30:53;;;;;;;5.05;2.10;;;9.00;88.40;;;;;;5114570;28;20189;-66
2024/03/17 05:33:22;;;;;;;3.92;2.05;;;9.10;88.30;;;;;;5114363;28;20251;-66
2024/03/17 05:35:53;;;;;;;4.32;2.50;;;9.10;87.70;;;;;;5114062;28;20664;-66
2024/03/17 05:38:21;;;;;;;3.90;2.30;;;9.10;87.70;;;;;;5113963;28;20630;-66
2024/03/17 05:40:59;;;;;;;4.50;2.70;;;9.10;86.90;;;;;;5113727;28;20639;-66
2024/03/17 05:43:27;;;;;;;3.97;2.50;;;9.00;86.40;;;;;;5113692;28;20173;-67
2024/03/17 05:45:58;;;;;;;3.25;1.85;;;9.00;87.00;;;;;;5113972;28;20184;-66
2024/03/17 05:48:25;;;;;;;4.00;2.60;;;9.00;87.50;;;;;;5114037;28;20620;-66
2024/03/17 05:50:52;;;;;;;5.28;2.97;;;9.00;87.90;;;;;;5113582;28;20223;-66
2024/03/17 05:53:19;;;;;;;5.45;3.33;;;9.10;87.70;;;;;;5113774;28;20242;-66
2024/03/17 05:55:47;;;;;;;4.40;3.05;;;9.10;87.50;;;;;;5113541;28;20275;-66
2024/03/17 05:58:14;;;;;;;7.68;4.53;;;9.00;87.50;;;;;;5113871;28;20275;-66
2024/03/17 06:00:41;;;;;;;6.22;3.70;;;9.00;87.40;;;;;;5113796;28;20275;-66
2024/03/17 06:03:11;;;;;;;12.02;4.82;;;9.00;87.60;;;;;;5113775;28;20234;-66
2024/03/17 06:05:40;;;;;;;5.75;3.53;;;9.00;88.00;;;;;;5113804;28;20220;-66
2024/03/17 06:08:08;;;;;;;6.32;4.20;;;9.00;88.30;;;;;;5113641;28;20188;-66
2024/03/17 06:10:36;;;;;;;5.68;3.70;;;9.00;88.90;;;;;;5113723;28;20280;-66
2024/03/17 06:13:04;;;;;;;5.53;3.63;;;9.00;89.20;;;;;;5113356;28;20224;-66
2024/03/17 06:15:31;;;;;;;4.63;2.58;;;9.10;89.40;;;;;;5113444;28;20648;-66
2024/03/17 06:18:01;;;;;;;4.28;3.00;;;9.10;89.70;;;;;;5114004;28;20191;-66
2024/03/17 06:20:30;;;;;;;5.22;3.85;;;9.20;90.00;;;;;;5113408;28;20254;-66
2024/03/17 06:22:57;;;;;;;4.45;2.97;;;9.20;90.40;;;;;;5113328;28;20224;-66
2024/03/17 06:25:24;;;;;;;4.65;3.03;;;9.20;90.70;;;;;;5113555;28;20210;-66
2024/03/17 06:27:51;;;;;;;3.30;2.17;;;9.30;90.90;;;;;;5113581;28;20238;-66
2024/03/17 06:30:19;;;;;;;5.65;2.28;;;9.50;91.20;;;;;;5113738;28;20188;-66
2024/03/17 06:32:47;;;;;;;3.40;2.00;;;9.60;91.40;;;;;;5113203;28;20223;-66
2024/03/17 06:35:15;;;;;;;4.38;3.20;;;9.80;90.80;;;;;;5113225;28;20730;-66
2024/03/17 06:37:44;;;;;;;3.72;2.45;;;9.90;90.00;;;;;;5114957;28;20190;-66
2024/03/17 06:40:14;;;;;;;3.22;2.05;;;10.00;88.60;;;;;;5117761;28;20192;-66
2024/03/17 06:42:42;;;;;;;3.70;2.60;;;10.00;88.50;;;;;;5117161;28;20216;-66
2024/03/17 06:45:09;;;;;;;3.28;2.35;;;10.10;88.00;;;;;;5117400;28;20276;-66
2024/03/17 06:47:39;;;;;;;3.58;2.75;;;10.20;88.00;;;;;;5117564;28;20478;-66
2024/03/17 06:50:11;;;;;;;4.20;2.97;;;10.30;88.20;;;;;;5117645;28;20192;-66
2024/03/17 06:52:38;;;;;;;4.45;2.75;;;10.40;88.40;;;;;;5117369;28;20192;-66
2024/03/17 06:55:07;;;;;;;3.00;2.25;;;10.50;89.10;;;;;;5116801;28;20291;-66
2024/03/17 06:57:34;;;;;;;3.35;2.28;;;10.70;87.30;;;;;;5117376;28;20271;-66
2024/03/17 07:00:01;;;;;;;3.58;2.55;;;10.80;86.20;;;;;;5117171;28;20191;-66
2024/03/17 07:02:28;;;;;;;3.53;2.47;;;10.90;85.70;;;;;;5117223;28;20184;-66
2024/03/17 07:04:55;;;;;;;2.92;1.90;;;10.90;85.70;;;;;;5116640;28;20223;-66
2024/03/17 07:07:22;;;;;;;2.50;1.60;;;11.00;85.60;;;;;;5116903;28;20223;-66
2024/03/17 07:09:50;;;;;;;3.05;2.38;;;11.00;85.10;;;;;;5116568;28;20219;-67
2024/03/17 07:12:19;;;;;;;3.47;1.70;;;11.10;85.00;;;;;;5116580;28;20241;-66
2024/03/17 07:14:45;;;;;;;3.17;1.70;;;11.30;85.70;;;;;;5116732;28;20558;-66
2024/03/17 07:17:12;;;;;;;3.03;1.73;;;11.60;83.60;;;;;;5116441;28;20214;-66
2024/03/17 07:19:39;;;;;;;2.93;1.33;;;11.80;80.90;;;;;;5116500;28;20458;-66
2024/03/17 07:22:06;;;;;;;3.43;1.50;;;11.80;80.20;;;;;;5116655;28;20481;-66
2024/03/17 07:24:33;;;;;;;2.63;1.30;;;11.90;80.60;;;;;;5116670;28;20436;-66
2024/03/17 07:27:00;;;;;;;2.73;1.43;;;12.30;80.00;;;;;;5116278;28;20854;-66
2024/03/17 07:29:41;;;;;;;2.80;1.70;;;12.80;79.00;;;;;;5116122;28;20430;-66
2024/03/17 07:32:08;;;;;;;3.00;1.20;;;13.30;76.20;;;;;;5116165;28;20433;-67
2024/03/17 07:34:35;;;;;;;3.10;1.20;;;13.90;73.80;;;;;;5116315;28;20526;-66
2024/03/17 07:37:03;;;;;;;2.70;1.40;;;14.70;72.10;;;;;;5116629;28;20722;-67
2024/03/17 07:39:32;;;;;;;3.00;1.37;;;15.70;68.70;;;;;;5116630;28;20430;-67
2024/03/17 07:41:59;;;;;;;3.07;1.40;;;16.70;65.20;;;;;;5116002;28;20475;-67
2024/03/17 07:44:28;;;;;;;2.20;1.13;;;17.60;61.70;;;;;;5115888;28;20447;-67
2024/03/17 07:46:55;;;;;;;2.10;0.73;;;18.50;61.10;;;;;;5115754;28;20441;-67
2024/03/17 07:49:22;;;;;;;2.60;0.90;;;19.40;57.50;;;;;;5115600;28;20432;-67
2024/03/17 07:51:49;;;;;;;2.20;0.67;;;20.20;54.80;;;;;;5115842;28;20483;-68
2024/03/17 07:54:16;;;;;;;3.40;0.70;;;20.90;54.10;;;;;;5115667;28;20554;-67
2024/03/17 07:56:43;;;;;;;2.00;0.80;;;21.70;49.80;;;;;;5115992;28;20511;-67
2024/03/17 07:59:12;;;;;;;1.90;0.57;;;22.30;47.90;;;;;;5115946;28;20488;-67
2024/03/17 08:01:41;;;;;;;3.80;0.80;;;22.70;42.50;;;;;;5115845;28;20430;-67
2024/03/17 08:04:08;;;;;;;2.50;0.83;;;22.90;43.80;;;;;;5115552;28;20497;-67
2024/03/17 08:06:35;;;;;;;3.33;0.80;;;23.20;40.10;;;;;;5115739;28;20431;-67
2024/03/17 08:09:02;;;;;;;2.47;0.90;;;23.50;40.50;;;;;;5115912;28;20441;-67
2024/03/17 08:11:30;;;;;;;2.07;0.80;;;23.80;39.70;;;;;;5115388;28;20950;-67
2024/03/17 08:13:57;;;;;;;3.20;0.80;;;24.20;39.30;;;;;;5115245;28;20959;-67
2024/03/17 08:16:24;;;;;;;2.23;0.77;;;24.60;38.90;;;;;;5115638;28;20438;-68
2024/03/17 08:18:52;;;;;;;2.00;0.90;;;24.70;36.30;;;;;;5114954;28;20525;-68
2024/03/17 08:21:19;;;;;;;2.90;1.00;;;24.90;37.90;;;;;;5115508;28;20470;-67
2024/03/17 08:23:47;;;;;;;2.10;0.83;;;25.10;34.80;;;;;;5115220;28;20513;-68
2024/03/17 08:26:14;;;;;;;7.10;1.30;;;24.90;33.70;;;;;;5115582;28;20483;-68
2024/03/17 08:28:46;;;;;;;2.10;0.80;;;25.00;33.70;;;;;;5115054;28;20431;-68
2024/03/17 08:31:15;;;;;;;2.10;0.73;;;25.00;32.30;;;;;;5115665;28;20418;-68
2024/03/17 08:33:42;;;;;;;3.00;1.20;;;24.80;33.30;;;;;;5115291;28;20492;-68
2024/03/17 08:36:10;;;;;;;2.70;0.80;;;25.10;34.60;;;;;;5115118;28;20469;-68
2024/03/17 08:38:39;;;;;;;6.10;1.00;;;25.40;33.50;;;;;;5115171;28;20741;-68
2024/03/17 08:41:07;;;;;;;2.13;0.70;;;25.80;33.60;;;;;;5115256;28;20500;-66
2024/03/17 08:43:34;;;;;;;3.10;0.80;;;26.20;32.00;;;;;;5115141;28;20479;-67
2024/03/17 08:46:03;;;;;;;2.10;0.70;;;26.50;31.00;;;;;;5115113;28;20546;-67
2024/03/17 08:48:31;;;;;;;2.47;1.00;;;26.60;29.60;;;;;;5114709;28;20910;-67
2024/03/17 08:50:58;;;;;;;3.57;1.30;;;26.60;29.40;;;;;;5115092;28;20777;-67
2024/03/17 08:53:27;;;;;;;3.33;1.43;;;26.70;29.40;;;;;;5115136;28;20886;-68
2024/03/17 08:55:54;;;;;;;2.40;1.10;;;26.80;28.70;;;;;;5114626;28;20518;-67
2024/03/17 08:58:22;;;;;;;2.60;1.20;;;27.00;29.80;;;;;;5115084;28;20824;-67
2024/03/17 09:00:50;;;;;;;2.80;0.90;;;27.40;29.80;;;;;;5114397;28;20433;-67
2024/03/17 09:03:18;;;;;;;2.73;0.80;;;27.80;29.30;;;;;;5114793;28;20507;-67
2024/03/17 09:05:46;;;;;;;2.70;0.97;;;28.10;28.90;;;;;;5096465;28;20940;-67
2024/03/17 09:08:17;;;;;;;2.20;0.97;;;28.20;27.00;;;;;;5114430;28;20465;-67
2024/03/17 09:10:45;;;;;;;3.63;0.80;;;28.00;27.10;;;;;;5114309;28;20430;-67
2024/03/17 09:13:15;;;;;;;2.13;0.80;;;28.00;27.60;;;;;;5114248;28;20936;-67
2024/03/17 09:15:42;;;;;;;2.80;0.87;;;28.30;27.40;;;;;;5114437;28;20487;-67
2024/03/17 09:18:09;;;;;;;2.93;1.33;;;28.50;27.60;;;;;;5114110;28;20912;-67
2024/03/17 09:20:36;;;;;;;2.77;0.90;;;28.50;26.90;;;;;;5114882;28;20470;-67
2024/03/17 09:23:03;;;;;;;3.57;1.10;;;28.50;26.90;;;;;;5114320;28;20503;-67
2024/03/17 09:25:30;;;;;;;2.37;0.90;;;28.50;26.40;;;;;;5114341;28;20789;-67
2024/03/17 09:27:58;;;;;;;2.50;1.10;;;28.30;26.60;;;;;;5114283;28;20430;-67
2024/03/17 09:30:25;;;;;;;2.43;0.90;;;28.00;25.40;;;;;;5114279;28;20843;-66
2024/03/17 09:32:52;;;;;;;3.03;1.20;;;27.80;26.70;;;;;;5114182;28;20920;-66
2024/03/17 09:35:19;;;;;;;4.73;1.40;;;27.80;26.50;;;;;;5114012;28;20461;-67
2024/03/17 09:37:46;;;;;;;2.83;0.80;;;27.60;26.10;;;;;;5114253;28;20425;-67
2024/03/17 09:40:15;;;;;;;2.40;0.90;;;27.40;26.60;;;;;;5113832;28;20922;-67
2024/03/17 09:42:43;;;;;;;3.40;0.90;;;27.20;26.70;;;;;;5113843;28;21028;-67
2024/03/17 09:45:13;;;;;;;2.30;0.80;;;27.10;27.40;;;;;;5113726;28;20521;-67
2024/03/17 09:47:41;;;;;;;3.17;0.77;;;26.80;26.90;;;;;;5114383;28;20461;-67
2024/03/17 09:50:14;;;;;;;4.00;1.10;;;26.50;26.80;;;;;;5113996;28;20461;-66
2024/03/17 09:52:44;;;;;;;2.90;0.90;;;26.20;28.10;;;;;;5113654;28;20881;-67
2024/03/17 09:55:16;;;;;;;5.40;0.97;;;26.30;28.30;;;;;;5113629;28;20488;-67
2024/03/17 09:57:44;;;;;;;2.50;0.80;;;26.60;28.20;;;;;;5113588;28;20518;-67
2024/03/17 10:00:16;;;;;;;3.57;1.10;;;26.80;28.60;;;;;;5113625;28;20512;-67
2024/03/17 10:02:44;;;;;;;3.53;1.00;;;27.40;29.40;;;;;;5113607;28;20450;-68
2024/03/17 10:05:29;;;;;;;2.03;0.83;;;28.00;28.90;;;;;;5114064;28;20439;-67
2024/03/17 10:07:56;;;;;;;3.27;0.90;;;28.60;27.90;;;;;;5114075;28;20758;-67
2024/03/17 10:10:23;;;;;;;5.40;0.90;;;28.90;27.00;;;;;;5113737;28;20430;-67
2024/03/17 10:12:52;;;;;;;4.90;1.10;;;28.80;26.60;;;;;;5116889;28;20912;-67
2024/03/17 10:15:21;;;;;;;3.37;1.00;;;28.60;26.60;;;;;;5117697;28;20564;-67
2024/03/17 10:17:48;;;;;;;4.27;1.10;;;28.70;25.90;;;;;;5117874;28;20488;-67
2024/03/17 10:20:17;;;;;;;5.00;1.00;;;29.00;25.50;;;;;;5117870;28;20510;-67
2024/03/17 10:23:00;;;;;;;2.50;1.00;;;29.40;25.00;;;;;;5117424;28;20430;-67
2024/03/17 10:25:27;;;;;;;2.50;1.00;;;29.60;25.00;;;;;;5117697;28;20444;-67
2024/03/17 10:27:55;;;;;;;3.50;1.27;;;29.70;25.40;;;;;;5117882;28;20426;-67
2024/03/17 10:30:26;;;;;;;4.93;0.80;;;29.80;24.70;;;;;;5117386;28;20479;-68
2024/03/17 10:32:57;;;;;;;2.97;0.83;;;29.80;24.00;;;;;;5117385;28;20505;-68
2024/03/17 10:35:29;;;;;;;3.07;1.13;;;29.90;24.00;;;;;;5117217;28;20978;-68
2024/03/17 10:37:58;;;;;;;2.30;0.80;;;30.00;23.40;;;;;;5117668;28;20871;-68
2024/03/17 10:40:26;;;;;;;2.73;1.10;;;30.10;23.80;;;;;;5117187;28;20495;-68
2024/03/17 10:42:53;;;;;;;4.23;0.90;;;29.90;22.20;;;;;;5117553;28;20533;-68
2024/03/17 10:45:21;;;;;;;3.53;1.00;;;29.30;22.50;;;;;;5117481;28;20461;-68
2024/03/17 10:47:51;;;;;;;5.50;1.10;;;28.90;23.80;;;;;;5117080;28;20434;-68
2024/03/17 10:50:18;;;;;;;3.70;1.20;;;28.60;24.40;;;;;;5117467;28;20475;-68
2024/03/17 10:52:49;;;;;;;3.20;0.90;;;28.60;25.60;;;;;;5117279;28;20513;-68
2024/03/17 10:55:23;;;;;;;3.90;1.00;;;28.80;25.20;;;;;;5117244;28;20457;-68
2024/03/17 10:57:51;;;;;;;3.67;1.10;;;29.10;25.40;;;;;;5117185;28;20424;-68
2024/03/17 11:00:21;;;;;;;2.33;0.93;;;29.30;24.80;;;;;;5117194;28;20461;-68
2024/03/17 11:02:51;;;;;;;4.93;1.40;;;29.30;25.00;;;;;;5117251;28;20414;-68
2024/03/17 11:05:24;;;;;;;4.30;1.30;;;29.50;25.10;;;;;;5117028;28;20440;-68
2024/03/17 11:07:54;;;;;;;2.40;0.70;;;29.50;24.50;;;;;;5117033;28;20446;-67
2024/03/17 11:10:23;;;;;;;2.77;0.80;;;29.30;24.30;;;;;;5117041;28;20431;-67
2024/03/17 11:12:51;;;;;;;3.17;1.10;;;28.90;23.90;;;;;;5116681;28;20932;-67
2024/03/17 11:15:45;;;;;;;4.13;0.90;;;28.30;24.20;;;;;;5116935;28;20465;-68
2024/03/17 11:18:37;;;;;;;3.60;1.10;;;27.70;24.20;;;;;;5057547;28;20450;-68
2024/03/17 11:21:10;;;;;;;3.13;1.20;;;27.30;25.10;;;;;;5116903;28;20837;-67
2024/03/17 11:23:38;;;;;;;2.93;0.80;;;27.00;25.40;;;;;;5116048;28;20415;-67
2024/03/17 11:26:07;;;;;;;2.80;1.03;;;26.60;26.00;;;;;;5116697;28;20449;-67
2024/03/17 11:28:48;;;;;;;2.40;0.90;;;26.20;25.70;;;;;;5116568;28;20435;-67
2024/03/17 11:31:55;;;;;;;3.63;0.90;;;25.70;26.30;;;;;;5116242;28;20480;-67
2024/03/17 11:34:34;;;;;;;2.97;0.77;;;25.20;27.10;;;;;;5116645;28;20427;-67
2024/03/17 11:37:03;;;;;;;2.87;1.17;;;24.70;27.70;;;;;;5116102;28;20454;-67
2024/03/17 11:39:55;;;;;;;3.93;1.40;;;24.50;28.80;;;;;;5116518;28;20430;-67
2024/03/17 11:42:22;;;;;;;3.13;1.10;;;24.40;29.00;;;;;;5116652;28;20470;-67
2024/03/17 11:45:06;;;;;;;2.87;1.07;;;24.20;28.40;;;;;;5116355;28;20873;-67
2024/03/17 11:47:39;;;;;;;3.70;0.90;;;24.10;28.70;;;;;;5115753;28;20600;-67
2024/03/17 11:50:10;;;;;;;2.30;0.90;;;24.20;29.10;;;;;;5116241;28;20418;-67
2024/03/17 11:52:37;;;;;;;3.97;1.40;;;24.20;28.70;;;;;;5116255;28;20860;-66
2024/03/17 11:55:05;;;;;;;2.20;0.80;;;24.20;28.80;;;;;;5116065;28;20825;-67
2024/03/17 11:57:31;;;;;;;2.63;1.10;;;24.20;29.20;;;;;;5116176;28;20517;-67
2024/03/17 11:59:58;;;;;;;3.33;1.10;;;24.30;29.50;;;;;;5116003;28;20518;-67
2024/03/17 12:02:26;;;;;;;3.40;1.13;;;24.30;28.80;;;;;;5115924;28;20536;-67
2024/03/17 12:04:53;;;;;;;5.07;1.47;;;24.20;28.80;;;;;;5115915;28;20449;-67
2024/03/17 12:07:23;;;;;;;3.13;1.30;;;24.00;29.10;;;;;;5115968;28;20430;-67
2024/03/17 12:09:51;;;;;;;3.87;1.03;;;24.10;30.00;;;;;;5115797;28;20427;-67
2024/03/17 12:12:19;;;;;;;3.30;1.10;;;24.20;29.80;;;;;;5115776;28;20820;-67
2024/03/17 12:14:47;;;;;;;3.20;0.93;;;24.40;30.10;;;;;;5115687;28;20427;-67
2024/03/17 12:17:15;;;;;;;3.80;1.10;;;24.30;28.70;;;;;;5115152;28;20466;-67
2024/03/17 12:19:45;;;;;;;3.03;1.00;;;24.10;29.00;;;;;;5115328;28;20464;-67
2024/03/17 12:22:16;;;;;;;3.50;1.27;;;23.90;28.80;;;;;;5115290;28;20920;-67
2024/03/17 12:24:46;;;;;;;3.27;1.10;;;23.80;29.70;;;;;;5115963;28;20427;-67
2024/03/17 12:27:18;;;;;;;3.50;0.80;;;23.80;29.60;;;;;;5115776;28;20520;-67
2024/03/17 12:29:45;;;;;;;4.00;0.90;;;23.70;29.50;;;;;;5115454;28;20761;-67
2024/03/17 12:32:14;;;;;;;3.27;1.20;;;23.70;30.10;;;;;;5115087;28;20461;-68
2024/03/17 12:34:42;;;;;;;1.87;0.60;;;23.60;30.60;;;;;;5115046;28;20517;-67
2024/03/17 12:37:08;;;;;;;2.70;1.00;;;23.60;31.30;;;;;;5115339;28;20462;-66
2024/03/17 12:39:39;;;;;;;3.17;0.90;;;23.70;31.00;;;;;;5114995;28;20438;-67
2024/03/17 12:42:08;;;;;;;3.30;0.90;;;23.80;30.20;;;;;;5115530;28;20444;-67
2024/03/17 12:44:35;;;;;;;6.83;1.00;;;23.80;30.50;;;;;;5115380;28;20513;-68
2024/03/17 12:47:04;;;;;;;4.30;1.20;;;23.90;31.10;;;;;;5115071;28;20469;-67
2024/03/17 12:49:34;;;;;;;3.40;1.30;;;23.90;30.70;;;;;;5114704;28;20827;-67
2024/03/17 12:52:00;;;;;;;3.27;0.90;;;23.70;30.00;;;;;;5114638;28;20434;-68
2024/03/17 12:54:28;;;;;;;3.73;1.47;;;23.60;30.00;;;;;;5115213;28;20526;-67
2024/03/17 13:02:35;;;;;;;2.50;0.93;;;23.10;31.00;;;;;;5114599;28;20403;-67